createdAt,value
2023-04-16T00:01:50.643Z,99048.03
2023-04-16T00:04:17.308Z,99037.91
2023-04-16T00:06:43.931Z,99037.09
2023-04-16T00:09:10.770Z,99036.75
2023-04-16T00:11:37.442Z,99037.09
2023-04-16T00:14:04.792Z,99043.69
2023-04-16T00:16:31.511Z,99049.50
2023-04-16T00:18:58.073Z,99039.00
2023-04-16T00:21:24.573Z,99049.00
2023-04-16T00:23:51.154Z,99057.41
2023-04-16T00:26:17.649Z,99061.63
2023-04-16T00:28:44.236Z,99065.00
2023-04-16T00:31:10.961Z,99066.63
2023-04-16T00:33:37.503Z,99063.19
2023-04-16T00:36:04.485Z,99062.88
2023-04-16T00:38:32.553Z,99067.41
2023-04-16T00:40:59.146Z,99063.03
2023-04-16T00:43:26.837Z,99067.91
2023-04-16T00:45:56.443Z,99081.09
2023-04-16T00:48:23.563Z,99076.97
2023-04-16T00:50:50.145Z,99071.25
2023-04-16T00:53:16.754Z,99077.06
2023-04-16T00:55:43.801Z,99079.28
2023-04-16T00:58:10.367Z,99077.38
2023-04-16T01:00:36.925Z,99081.44
2023-04-16T01:03:05.126Z,99076.84
2023-04-16T01:05:31.869Z,99076.09
2023-04-16T01:08:01.133Z,99087.38
2023-04-16T01:10:27.787Z,99090.81
2023-04-16T01:12:54.377Z,99087.50
2023-04-16T01:15:20.957Z,99081.47
2023-04-16T01:17:47.847Z,99082.84
2023-04-16T01:20:14.860Z,99079.81
2023-04-16T01:22:41.406Z,99081.84
2023-04-16T01:25:08.145Z,99068.84
2023-04-16T01:27:34.666Z,99076.34
2023-04-16T01:30:01.177Z,99071.72
2023-04-16T01:32:27.726Z,99070.56
2023-04-16T01:34:54.290Z,99079.81
2023-04-16T01:37:20.867Z,99077.03
2023-04-16T01:39:47.362Z,99070.25
2023-04-16T01:42:13.887Z,99073.66
2023-04-16T01:44:40.479Z,99067.59
2023-04-16T01:47:07.014Z,99077.69
2023-04-16T01:49:34.353Z,99074.50
2023-04-16T01:52:00.905Z,99064.59
2023-04-16T01:54:27.436Z,99074.09
2023-04-16T01:56:53.987Z,99070.81
2023-04-16T01:59:20.690Z,99076.31
2023-04-16T02:01:47.393Z,99076.03
2023-04-16T02:04:14.152Z,99076.69
2023-04-16T02:06:40.884Z,99071.91
2023-04-16T02:09:07.589Z,99077.22
2023-04-16T02:11:34.418Z,99075.63
2023-04-16T02:14:01.114Z,99071.91
2023-04-16T02:16:27.721Z,99082.44
2023-04-16T02:18:54.331Z,99084.66
2023-04-16T02:21:20.989Z,99082.03
2023-04-16T02:23:51.516Z,99078.66
2023-04-16T02:26:18.231Z,99091.50
2023-04-16T02:28:44.803Z,99083.94
2023-04-16T02:31:11.356Z,99087.72
2023-04-16T02:33:37.851Z,99084.34
2023-04-16T02:36:04.653Z,99087.00
2023-04-16T02:38:31.226Z,99093.41
2023-04-16T02:40:57.759Z,99085.84
2023-04-16T02:43:24.344Z,99091.41
2023-04-16T02:45:50.876Z,99100.84
2023-04-16T02:48:17.464Z,99107.78
2023-04-16T02:50:43.994Z,99102.31
2023-04-16T02:53:10.819Z,99101.66
2023-04-16T02:55:37.419Z,99106.47
2023-04-16T02:58:03.939Z,99106.47
2023-04-16T03:00:30.461Z,99105.31
2023-04-16T03:02:57.241Z,99101.94
2023-04-16T03:05:23.909Z,99094.88
2023-04-16T03:07:56.418Z,99099.84
2023-04-16T03:10:23.591Z,99109.00
2023-04-16T03:12:50.484Z,99113.00
2023-04-16T03:15:17.176Z,99111.56
2023-04-16T03:17:43.780Z,99105.66
2023-04-16T03:20:10.756Z,99109.84
2023-04-16T03:22:41.154Z,99111.78
2023-04-16T03:25:08.262Z,99121.22
2023-04-16T03:27:35.543Z,99115.09
2023-04-16T03:30:02.245Z,99122.28
2023-04-16T03:32:28.869Z,99129.38
2023-04-16T03:34:55.476Z,99132.28
2023-04-16T03:37:22.048Z,99138.06
2023-04-16T03:39:48.604Z,99132.13
2023-04-16T03:42:15.338Z,99142.78
2023-04-16T03:44:41.975Z,99144.63
2023-04-16T03:47:08.536Z,99145.66
2023-04-16T03:49:35.194Z,99153.25
2023-04-16T03:52:01.801Z,99148.91
2023-04-16T03:54:28.371Z,99158.03
2023-04-16T03:56:54.924Z,99159.44
2023-04-16T03:59:21.434Z,99158.72
2023-04-16T04:01:48.078Z,99165.66
2023-04-16T04:04:15.267Z,99174.19
2023-04-16T04:06:41.942Z,99176.34
2023-04-16T04:09:08.772Z,99173.63
2023-04-16T04:11:35.514Z,99185.84
2023-04-16T04:14:02.136Z,99183.28
2023-04-16T04:16:28.799Z,99189.03
2023-04-16T04:18:55.660Z,99191.47
2023-04-16T04:21:22.200Z,99196.09
2023-04-16T04:23:48.918Z,99197.69
2023-04-16T04:26:15.552Z,99203.13
2023-04-16T04:28:42.153Z,99206.84
2023-04-16T04:31:08.683Z,99211.81
2023-04-16T04:33:35.486Z,99205.56
2023-04-16T04:36:02.022Z,99213.25
2023-04-16T04:38:28.602Z,99215.31
2023-04-16T04:40:55.114Z,99209.63
2023-04-16T04:43:21.906Z,99206.25
2023-04-16T04:45:49.408Z,99218.03
2023-04-16T04:48:16.537Z,99216.66
2023-04-16T04:50:44.352Z,99218.84
2023-04-16T04:53:11.056Z,99222.19
2023-04-16T04:55:38.390Z,99218.63
2023-04-16T04:58:06.238Z,99219.16
2023-04-16T05:00:33.840Z,99228.28
2023-04-16T05:03:05.168Z,99229.53
2023-04-16T05:05:31.914Z,99230.63
2023-04-16T05:07:58.564Z,99233.00
2023-04-16T05:10:25.135Z,99226.06
2023-04-16T05:12:51.722Z,99232.78
2023-04-16T05:15:18.268Z,99241.28
2023-04-16T05:17:44.911Z,99234.06
2023-04-16T05:20:11.681Z,99232.53
2023-04-16T05:22:38.244Z,99233.84
2023-04-16T05:25:05.425Z,99235.13
2023-04-16T05:27:32.003Z,99240.75
2023-04-16T05:29:58.509Z,99232.16
2023-04-16T05:32:27.468Z,99234.13
2023-04-16T05:34:54.059Z,99236.34
2023-04-16T05:37:20.776Z,99241.94
2023-04-16T05:39:47.743Z,99243.56
2023-04-16T05:42:14.266Z,99241.63
2023-04-16T05:44:40.847Z,99244.38
2023-04-16T05:47:09.388Z,99243.34
2023-04-16T05:49:37.361Z,99243.06
2023-04-16T05:52:05.669Z,99253.28
2023-04-16T05:54:32.233Z,99245.44
2023-04-16T05:56:59.494Z,99246.69
2023-04-16T05:59:26.211Z,99255.13
2023-04-16T06:01:53.002Z,99261.53
2023-04-16T06:04:19.648Z,99261.09
2023-04-16T06:06:46.346Z,99268.72
2023-04-16T06:09:13.011Z,99266.31
2023-04-16T06:11:39.591Z,99274.72
2023-04-16T06:14:06.278Z,99275.06
2023-04-16T06:16:32.981Z,99275.63
2023-04-16T06:18:59.512Z,99278.16
2023-04-16T06:21:26.710Z,99284.56
2023-04-16T06:23:54.891Z,99276.75
2023-04-16T06:26:21.634Z,99281.28
2023-04-16T06:28:48.337Z,99279.72
2023-04-16T06:31:14.984Z,99294.19
2023-04-16T06:33:41.597Z,99291.00
2023-04-16T06:36:08.199Z,99291.44
2023-04-16T06:38:36.015Z,99297.06
2023-04-16T06:41:02.634Z,99299.34
2023-04-16T06:43:30.082Z,99303.56
2023-04-16T06:45:56.750Z,99303.53
2023-04-16T06:48:23.444Z,99310.63
2023-04-16T06:50:50.336Z,99307.59
2023-04-16T06:53:16.994Z,99303.59
2023-04-16T06:55:43.519Z,99318.50
2023-04-16T06:58:10.124Z,99316.44
2023-04-16T07:00:36.699Z,99311.59
2023-04-16T07:03:03.552Z,99323.44
2023-04-16T07:05:30.382Z,99316.22
2023-04-16T07:07:57.693Z,99321.19
2023-04-16T07:10:24.409Z,99319.06
2023-04-16T07:12:51.010Z,99328.28
2023-04-16T07:15:17.549Z,99321.81
2023-04-16T07:17:44.111Z,99326.25
2023-04-16T07:20:11.307Z,99331.47
2023-04-16T07:22:37.941Z,99330.75
2023-04-16T07:25:04.849Z,99336.72
2023-04-16T07:27:31.551Z,99338.75
2023-04-16T07:29:58.282Z,99342.38
2023-04-16T07:32:25.397Z,99342.38
2023-04-16T07:34:52.075Z,99342.03
2023-04-16T07:37:18.623Z,99346.44
2023-04-16T07:39:45.459Z,99352.25
2023-04-16T07:42:12.014Z,99352.09
2023-04-16T07:44:39.066Z,99352.53
2023-04-16T07:47:05.930Z,99359.13
2023-04-16T07:49:32.621Z,99352.38
2023-04-16T07:51:59.199Z,99357.06
2023-04-16T07:54:27.342Z,99348.81
2023-04-16T07:56:55.627Z,99348.47
2023-04-16T07:59:23.971Z,99346.59
2023-04-16T08:01:53.219Z,99348.41
2023-04-16T08:04:24.956Z,99352.28
2023-04-16T08:06:52.748Z,99360.34
2023-04-16T08:09:21.087Z,99357.81
2023-04-16T08:11:49.288Z,99358.09
2023-04-16T08:14:18.873Z,99351.50
2023-04-16T08:16:45.517Z,99354.84
2023-04-16T08:19:12.559Z,99350.66
2023-04-16T08:21:39.632Z,99356.81
2023-04-16T08:24:06.457Z,99360.34
2023-04-16T08:26:33.039Z,99369.06
2023-04-16T08:28:59.564Z,99356.63
2023-04-16T08:31:26.325Z,99355.28
2023-04-16T08:33:52.958Z,99360.72
2023-04-16T08:36:19.650Z,99366.03
2023-04-16T08:38:46.231Z,99370.16
2023-04-16T08:41:14.057Z,99370.34
2023-04-16T08:43:44.744Z,99365.13
2023-04-16T08:46:12.456Z,99367.66
2023-04-16T08:48:42.815Z,99375.88
2023-04-16T08:51:12.118Z,99377.84
2023-04-16T08:53:53.882Z,99380.75
2023-04-16T08:56:23.063Z,99384.25
2023-04-16T08:58:51.499Z,99390.44
2023-04-16T09:01:19.234Z,99396.22
2023-04-16T09:03:49.211Z,99399.50
2023-04-16T09:06:17.004Z,99395.53
2023-04-16T09:08:46.589Z,99410.13
2023-04-16T09:11:17.945Z,99400.75
2023-04-16T09:13:46.063Z,99411.28
2023-04-16T09:16:14.030Z,99407.03
2023-04-16T09:18:41.444Z,99405.81
2023-04-16T09:21:10.882Z,99403.41
2023-04-16T09:23:38.972Z,99409.56
2023-04-16T09:26:06.085Z,99404.84
2023-04-16T09:28:59.087Z,99408.09
2023-04-16T09:31:25.672Z,99406.31
2023-04-16T09:34:05.508Z,99409.66
2023-04-16T09:36:33.116Z,99418.13
2023-04-16T09:39:00.353Z,99411.19
2023-04-16T09:41:39.520Z,99408.19
2023-04-16T09:44:06.064Z,99411.66
2023-04-16T09:46:37.617Z,99413.84
2023-04-16T09:49:18.747Z,99410.84
2023-04-16T09:51:47.230Z,99405.28
2023-04-16T09:54:13.872Z,99407.72
2023-04-16T09:56:42.616Z,99427.75
2023-04-16T09:59:16.660Z,99416.81
2023-04-16T10:01:43.391Z,99416.44
2023-04-16T10:04:10.347Z,99414.69
2023-04-16T10:06:36.965Z,99407.09
2023-04-16T10:09:07.775Z,99415.25
2023-04-16T10:11:35.082Z,99414.50
2023-04-16T10:14:01.624Z,99415.69
2023-04-16T10:16:29.558Z,99418.59
2023-04-16T10:18:56.776Z,99412.56
2023-04-16T10:21:24.053Z,99412.72
2023-04-16T10:23:52.094Z,99412.22
2023-04-16T10:26:18.922Z,99406.81
2023-04-16T10:28:45.934Z,99412.88
2023-04-16T10:31:13.044Z,99409.44
2023-04-16T10:33:41.126Z,99409.69
2023-04-16T10:36:15.941Z,99403.19
2023-04-16T10:38:46.299Z,99415.41
2023-04-16T10:41:13.131Z,99400.94
2023-04-16T10:43:50.999Z,99404.78
2023-04-16T10:46:31.913Z,99407.06
2023-04-16T10:49:03.715Z,99408.06
2023-04-16T10:51:33.283Z,99397.75
2023-04-16T10:54:30.016Z,99399.34
2023-04-16T10:57:04.426Z,99403.00
2023-04-16T10:59:34.958Z,99408.06
2023-04-16T11:02:07.957Z,99406.84
2023-04-16T11:04:39.693Z,99408.66
2023-04-16T11:07:15.532Z,99408.81
2023-04-16T11:10:04.101Z,99410.47
2023-04-16T11:12:47.263Z,99414.38
2023-04-16T11:15:19.587Z,99412.56
2023-04-16T11:17:48.148Z,99412.69
2023-04-16T11:20:21.073Z,99419.47
2023-04-16T11:22:52.540Z,99425.13
2023-04-16T11:25:31.855Z,99426.06
2023-04-16T11:28:01.403Z,99419.50
2023-04-16T11:30:33.859Z,99426.63
2023-04-16T11:33:11.501Z,99410.66
2023-04-16T11:35:43.399Z,99410.97
2023-04-16T11:38:09.974Z,99420.34
2023-04-16T11:40:36.641Z,99414.69
2023-04-16T11:43:12.624Z,99416.91
2023-04-16T11:45:53.481Z,99424.91
2023-04-16T11:48:20.025Z,99426.06
2023-04-16T11:50:56.133Z,99417.28
2023-04-16T11:53:22.772Z,99422.88
2023-04-16T11:55:49.302Z,99428.09
2023-04-16T11:58:16.475Z,99426.03
2023-04-16T12:00:43.804Z,99413.88
2023-04-16T12:03:10.947Z,99411.94
2023-04-16T12:05:39.377Z,99413.78
2023-04-16T12:08:10.299Z,99415.06
2023-04-16T12:10:38.513Z,99421.06
2023-04-16T12:13:12.873Z,99419.22
2023-04-16T12:15:56.171Z,99410.66
2023-04-16T12:18:27.129Z,99419.38
2023-04-16T12:20:54.118Z,99419.81
2023-04-16T12:23:24.619Z,99412.50
2023-04-16T12:25:52.138Z,99413.38
2023-04-16T12:28:41.714Z,99415.09
2023-04-16T12:31:08.581Z,99421.63
2023-04-16T12:33:35.166Z,99415.75
2023-04-16T12:36:03.515Z,99416.34
2023-04-16T12:38:30.287Z,99407.44
2023-04-16T12:40:57.722Z,99412.38
2023-04-16T12:43:25.093Z,99404.78
2023-04-16T12:45:51.723Z,99402.91
2023-04-16T12:48:18.332Z,99405.69
2023-04-16T12:50:44.924Z,99405.25
2023-04-16T12:53:12.051Z,99404.91
2023-04-16T12:55:38.712Z,99411.97
2023-04-16T12:58:05.350Z,99411.88
2023-04-16T13:00:32.143Z,99406.28
2023-04-16T13:02:58.828Z,99392.56
2023-04-16T13:05:25.787Z,99397.25
2023-04-16T13:07:52.469Z,99394.31
2023-04-16T13:10:21.259Z,99393.69
2023-04-16T13:12:47.839Z,99396.41
2023-04-16T13:15:14.386Z,99400.78
2023-04-16T13:17:40.963Z,99403.38
2023-04-16T13:20:07.963Z,99402.56
2023-04-16T13:22:34.577Z,99392.56
2023-04-16T13:25:01.118Z,99395.41
2023-04-16T13:27:27.676Z,99396.22
2023-04-16T13:29:54.258Z,99391.47
2023-04-16T13:32:21.165Z,99400.88
2023-04-16T13:34:47.696Z,99398.81
2023-04-16T13:37:14.302Z,99396.66
2023-04-16T13:39:40.881Z,99396.16
2023-04-16T13:42:07.442Z,99396.06
2023-04-16T13:44:34.104Z,99400.53
2023-04-16T13:47:01.010Z,99405.44
2023-04-16T13:49:27.631Z,99401.72
2023-04-16T13:51:54.253Z,99410.63
2023-04-16T13:54:20.836Z,99414.97
2023-04-16T13:56:47.464Z,99411.97
2023-04-16T13:59:15.693Z,99405.13
2023-04-16T14:01:42.364Z,99412.06
2023-04-16T14:04:08.961Z,99401.88
2023-04-16T14:06:35.590Z,99411.53
2023-04-16T14:09:02.198Z,99412.13
2023-04-16T14:11:28.968Z,99398.59
2023-04-16T14:13:55.675Z,99407.72
2023-04-16T14:16:22.480Z,99407.28
2023-04-16T14:18:49.099Z,99410.34
2023-04-16T14:21:15.693Z,99403.78
2023-04-16T14:23:42.295Z,99406.94
2023-04-16T14:26:08.933Z,99404.09
2023-04-16T14:28:35.836Z,99406.97
2023-04-16T14:31:02.536Z,99395.63
2023-04-16T14:33:29.322Z,99398.78
2023-04-16T14:35:56.082Z,99401.78
2023-04-16T14:38:22.736Z,99398.16
2023-04-16T14:40:49.474Z,99395.09
2023-04-16T14:43:16.123Z,99400.50
2023-04-16T14:45:42.792Z,99401.78
2023-04-16T14:48:09.514Z,99394.22
2023-04-16T14:50:38.018Z,99397.78
2023-04-16T14:53:05.615Z,99402.44
2023-04-16T14:55:32.558Z,99403.13
2023-04-16T14:57:59.866Z,99405.94
2023-04-16T15:00:27.460Z,99401.81
2023-04-16T15:02:55.343Z,99398.22
2023-04-16T15:05:22.312Z,99402.97
2023-04-16T15:07:49.096Z,99405.59
2023-04-16T15:10:15.670Z,99403.88
2023-04-16T15:12:42.221Z,99409.03
2023-04-16T15:15:09.531Z,99406.78
2023-04-16T15:17:36.328Z,99408.22
2023-04-16T15:20:05.893Z,99401.69
2023-04-16T15:22:32.409Z,99402.50
2023-04-16T15:24:58.908Z,99416.38
2023-04-16T15:27:25.674Z,99414.13
2023-04-16T15:29:53.926Z,99413.31
2023-04-16T15:32:20.738Z,99420.78
2023-04-16T15:34:47.456Z,99415.19
2023-04-16T15:37:14.202Z,99419.47
2023-04-16T15:39:40.818Z,99415.84
2023-04-16T15:42:07.714Z,99417.50
2023-04-16T15:44:34.592Z,99415.78
2023-04-16T15:47:01.186Z,99419.75
2023-04-16T15:49:27.818Z,99419.56
2023-04-16T15:51:55.657Z,99420.06
2023-04-16T15:54:22.283Z,99419.63
2023-04-16T15:56:48.868Z,99418.69
2023-04-16T15:59:15.435Z,99415.63
2023-04-16T16:01:42.022Z,99418.69
2023-04-16T16:04:08.934Z,99424.56
2023-04-16T16:06:37.966Z,99418.63
2023-04-16T16:09:05.029Z,99416.97
2023-04-16T16:11:32.708Z,99426.38
2023-04-16T16:14:01.472Z,99423.47
2023-04-16T16:16:28.619Z,99431.75
2023-04-16T16:18:55.697Z,99427.66
2023-04-16T16:21:22.281Z,99427.50
2023-04-16T16:23:48.870Z,99437.66
2023-04-16T16:26:15.452Z,99428.94
2023-04-16T16:28:43.851Z,99426.84
2023-04-16T16:31:12.236Z,99428.72
2023-04-16T16:33:40.412Z,99421.91
2023-04-16T16:36:13.097Z,99431.66
2023-04-16T16:38:42.634Z,99426.88
2023-04-16T16:41:09.211Z,99426.44
2023-04-16T16:43:36.778Z,99434.25
2023-04-16T16:46:03.555Z,99432.91
2023-04-16T16:48:30.147Z,99435.22
2023-04-16T16:50:56.707Z,99427.94
2023-04-16T16:53:23.247Z,99425.13
2023-04-16T16:55:49.737Z,99428.59
2023-04-16T16:58:16.284Z,99430.09
2023-04-16T17:00:42.918Z,99433.56
2023-04-16T17:03:09.907Z,99433.81
2023-04-16T17:05:36.744Z,99432.25
2023-04-16T17:08:03.428Z,99430.91
2023-04-16T17:10:30.030Z,99431.28
2023-04-16T17:12:56.576Z,99434.28
2023-04-16T17:15:23.222Z,99437.84
2023-04-16T17:17:49.858Z,99429.50
2023-04-16T17:20:16.485Z,99439.25
2023-04-16T17:22:43.075Z,99429.31
2023-04-16T17:25:10.201Z,99433.47
2023-04-16T17:27:36.802Z,99428.34
2023-04-16T17:30:05.566Z,99436.47
2023-04-16T17:32:32.706Z,99441.09
2023-04-16T17:35:00.960Z,99437.47
2023-04-16T17:37:27.709Z,99435.88
2023-04-16T17:39:54.295Z,99442.06
2023-04-16T17:42:21.078Z,99445.19
2023-04-16T17:44:47.773Z,99442.00
2023-04-16T17:47:14.389Z,99440.38
2023-04-16T17:49:41.030Z,99452.19
2023-04-16T17:52:07.567Z,99441.19
2023-04-16T17:54:34.176Z,99445.88
2023-04-16T17:57:00.718Z,99444.25
2023-04-16T17:59:27.540Z,99442.69
2023-04-16T18:01:54.846Z,99446.13
2023-04-16T18:04:21.603Z,99450.47
2023-04-16T18:06:48.464Z,99461.47
2023-04-16T18:09:15.526Z,99455.19
2023-04-16T18:11:42.122Z,99474.75
2023-04-16T18:14:10.218Z,99459.06
2023-04-16T18:16:36.961Z,99473.59
2023-04-16T18:19:03.483Z,99464.47
2023-04-16T18:21:30.502Z,99472.63
2023-04-16T18:23:57.576Z,99470.91
2023-04-16T18:26:25.231Z,99461.75
2023-04-16T18:28:51.998Z,99466.38
2023-04-16T18:31:21.219Z,99461.56
2023-04-16T18:33:56.815Z,99473.25
2023-04-16T18:36:24.642Z,99467.69
2023-04-16T18:39:01.122Z,99472.72
2023-04-16T18:41:28.728Z,99466.44
2023-04-16T18:43:55.381Z,99469.88
2023-04-16T18:46:21.991Z,99472.63
2023-04-16T18:48:48.600Z,99475.81
2023-04-16T18:51:16.305Z,99475.81
2023-04-16T18:53:44.465Z,99474.56
2023-04-16T18:56:11.715Z,99480.41
2023-04-16T18:58:38.534Z,99481.53
2023-04-16T19:01:07.812Z,99481.22
2023-04-16T19:03:34.688Z,99487.84
2023-04-16T19:06:01.611Z,99492.53
2023-04-16T19:08:28.240Z,99492.53
2023-04-16T19:10:54.883Z,99492.09
2023-04-16T19:13:21.481Z,99502.63
2023-04-16T19:15:48.073Z,99509.72
2023-04-16T19:18:14.785Z,99489.34
2023-04-16T19:20:41.338Z,99501.13
2023-04-16T19:23:09.217Z,99504.22
2023-04-16T19:25:39.339Z,99501.81
2023-04-16T19:28:05.873Z,99493.50
2023-04-16T19:30:32.695Z,99507.22
2023-04-16T19:32:59.307Z,99493.38
2023-04-16T19:35:25.925Z,99493.25
2023-04-16T19:37:52.719Z,99492.81
2023-04-16T19:40:19.344Z,99499.00
2023-04-16T19:42:45.889Z,99484.00
2023-04-16T19:45:12.468Z,99493.72
2023-04-16T19:47:39.152Z,99496.03
2023-04-16T19:50:06.483Z,99501.44
2023-04-16T19:52:38.656Z,99496.28
2023-04-16T19:55:06.608Z,99493.09
2023-04-16T19:57:33.326Z,99491.81
2023-04-16T20:00:00.112Z,99488.63
2023-04-16T20:02:26.832Z,99486.69
2023-04-16T20:04:53.538Z,99494.44
2023-04-16T20:07:20.565Z,99488.97
2023-04-16T20:09:47.180Z,99499.16
2023-04-16T20:12:14.404Z,99488.97
2023-04-16T20:14:41.902Z,99491.38
2023-04-16T20:17:10.183Z,99496.88
2023-04-16T20:19:40.243Z,99497.19
2023-04-16T20:22:06.790Z,99499.16
2023-04-16T20:24:33.370Z,99482.69
2023-04-16T20:26:59.870Z,99490.56
2023-04-16T20:29:26.447Z,99494.94
2023-04-16T20:31:53.017Z,99479.59
2023-04-16T20:34:19.568Z,99487.81
2023-04-16T20:36:46.124Z,99484.63
2023-04-16T20:39:12.977Z,99481.09
2023-04-16T20:41:44.080Z,99482.69
2023-04-16T20:44:18.061Z,99480.41
2023-04-16T20:46:49.405Z,99482.69
2023-04-16T20:49:17.688Z,99476.41
2023-04-16T20:51:44.375Z,99478.34
2023-04-16T20:54:10.982Z,99479.50
2023-04-16T20:56:37.534Z,99473.22
2023-04-16T20:59:04.102Z,99470.03
2023-04-16T21:01:30.847Z,99483.25
2023-04-16T21:03:57.676Z,99480.50
2023-04-16T21:06:25.101Z,99475.38
2023-04-16T21:08:51.662Z,99480.06
2023-04-16T21:11:18.192Z,99484.66
2023-04-16T21:13:44.737Z,99487.63
2023-04-16T21:16:12.484Z,99475.94
2023-04-16T21:18:39.208Z,99474.81
2023-04-16T21:21:06.059Z,99470.25
2023-04-16T21:23:32.613Z,99479.84
2023-04-16T21:25:59.162Z,99475.50
2023-04-16T21:28:25.834Z,99473.44
2023-04-16T21:30:53.179Z,99465.56
2023-04-16T21:33:19.849Z,99458.16
2023-04-16T21:35:52.059Z,99465.88
2023-04-16T21:38:19.142Z,99462.38
2023-04-16T21:40:50.406Z,99469.78
2023-04-16T21:43:17.938Z,99467.50
2023-04-16T21:45:44.538Z,99472.75
2023-04-16T21:48:11.168Z,99463.84
2023-04-16T21:50:38.048Z,99470.25
2023-04-16T21:53:06.543Z,99465.56
2023-04-16T21:55:34.757Z,99458.13
2023-04-16T21:58:01.985Z,99462.00
2023-04-16T22:00:28.658Z,99452.19
2023-04-16T22:02:56.350Z,99469.78
2023-04-16T22:05:25.767Z,99460.75
2023-04-16T22:07:53.175Z,99452.88
2023-04-16T22:10:19.734Z,99453.56
2023-04-16T22:12:46.592Z,99458.16
2023-04-16T22:15:13.823Z,99462.47
2023-04-16T22:17:41.558Z,99452.53
2023-04-16T22:20:12.721Z,99459.16
2023-04-16T22:22:43.091Z,99450.81
2023-04-16T22:25:10.565Z,99444.91
2023-04-16T22:27:37.399Z,99435.06
2023-04-16T22:30:05.244Z,99444.09
2023-04-16T22:32:33.117Z,99440.09
2023-04-16T22:34:59.729Z,99432.53
2023-04-16T22:37:26.257Z,99443.38
2023-04-16T22:39:52.764Z,99431.97
2023-04-16T22:42:19.318Z,99432.78
2023-04-16T22:44:46.013Z,99441.78
2023-04-16T22:47:12.561Z,99443.28
2023-04-16T22:49:39.089Z,99439.38
2023-04-16T22:52:05.624Z,99424.78
2023-04-16T22:54:32.920Z,99431.50
2023-04-16T22:56:59.550Z,99425.56
2023-04-16T22:59:26.361Z,99429.13
2023-04-16T23:01:53.127Z,99421.81
2023-04-16T23:04:19.949Z,99423.28
2023-04-16T23:06:46.777Z,99409.13
2023-04-16T23:09:13.601Z,99408.69
2023-04-16T23:11:40.603Z,99404.56
2023-04-16T23:14:08.297Z,99411.41
2023-04-16T23:16:34.928Z,99408.88
2023-04-16T23:19:01.498Z,99400.06
2023-04-16T23:21:28.081Z,99400.66
2023-04-16T23:23:54.806Z,99401.91
2023-04-16T23:26:21.363Z,99402.81
2023-04-16T23:28:47.920Z,99399.38
2023-04-16T23:31:14.539Z,99395.94
2023-04-16T23:33:41.173Z,99396.75
2023-04-16T23:36:08.273Z,99393.31
2023-04-16T23:38:34.781Z,99397.31
2023-04-16T23:41:01.310Z,99389.09
2023-04-16T23:43:27.860Z,99397.31
2023-04-16T23:45:54.451Z,99386.34
2023-04-16T23:48:21.168Z,99386.34
2023-04-16T23:50:47.674Z,99380.50
2023-04-16T23:53:14.301Z,99384.03
2023-04-16T23:55:40.874Z,99388.72
2023-04-16T23:58:07.415Z,99369.88
